Time;durP1;ratioP1;P1;durP2;ratioP2;P2;SDS_P1;SDS_P2;PMS_P1;PMS_P2;Temp;Humidity;BMP_temperature;BMP_pressure;BME280_temperature;BME280_humidity;BME280_pressure;Samples;Min_cycle;Max_cycle;Signal;HPM_P1;HPM_P2
2023/01/12 00:00:57;;;;;;;20.93;15.50;;;10.00;1.00;;;;;;5067841;28;20059;-52
2023/01/12 00:03:23;;;;;;;20.23;15.10;;;10.00;1.00;;;;;;5073590;28;20112;-51
2023/01/12 00:05:58;;;;;;;16.70;14.07;;;10.00;1.00;;;;;;5064387;28;20025;-48
2023/01/12 00:08:24;;;;;;;21.60;14.30;;;10.00;1.00;;;;;;5072957;28;20085;-47
2023/01/12 00:11:12;;;;;;;23.60;14.70;;;10.00;1.00;;;;;;5075019;28;20021;-46
2023/01/12 00:13:37;;;;;;;21.70;15.50;;;10.00;1.00;;;;;;5075218;28;20094;-48
2023/01/12 00:18:49;;;;;;;19.38;14.57;;;10.00;1.00;;;;;;5064588;28;20083;-47
2023/01/12 00:21:15;;;;;;;17.80;14.00;;;10.00;1.00;;;;;;5071359;28;20028;-50
2023/01/12 00:23:41;;;;;;;19.70;14.10;;;9.90;1.00;;;;;;5074665;28;20069;-47
2023/01/12 00:26:07;;;;;;;26.20;14.60;;;9.90;1.00;;;;;;5074585;28;20032;-49
2023/01/12 00:28:34;;;;;;;22.03;13.37;;;9.90;1.00;;;;;;5071349;28;20067;-52
2023/01/12 00:31:06;;;;;;;25.40;14.40;;;9.90;1.00;;;;;;5072402;28;20487;-52
2023/01/12 00:33:33;;;;;;;19.80;14.23;;;9.90;1.00;;;;;;5072137;28;20033;-51
2023/01/12 00:36:08;;;;;;;21.07;14.17;;;9.90;1.00;;;;;;5070528;28;20029;-52
2023/01/12 00:38:35;;;;;;;22.38;14.98;;;9.90;1.00;;;;;;5074607;28;20020;-51
2023/01/12 00:41:09;;;;;;;18.77;14.00;;;9.80;1.00;;;;;;5074366;28;20012;-53
2023/01/12 00:46:31;;;;;;;25.15;15.07;;;9.80;1.00;;;;;;5060780;28;20047;-51
2023/01/12 00:48:57;;;;;;;18.43;13.67;;;9.80;1.00;;;;;;5074216;28;20149;-47
2023/01/12 00:51:22;;;;;;;20.57;15.40;;;9.70;1.00;;;;;;5074029;28;20144;-47
2023/01/12 00:53:48;;;;;;;19.10;15.13;;;9.70;1.00;;;;;;5074174;28;20035;-52
2023/01/12 00:56:13;;;;;;;20.40;15.77;;;9.70;1.00;;;;;;5073923;28;20020;-52
2023/01/12 00:58:39;;;;;;;19.57;15.23;;;9.70;1.00;;;;;;5074102;28;20523;-51
2023/01/12 01:01:06;;;;;;;21.17;16.00;;;9.70;1.00;;;;;;5073822;28;20021;-52
2023/01/12 01:03:32;;;;;;;21.23;14.50;;;9.60;1.00;;;;;;5073830;28;20017;-47
2023/01/12 01:06:03;;;;;;;23.30;15.67;;;9.70;1.00;;;;;;5073846;28;20030;-48
2023/01/12 01:08:28;;;;;;;19.13;15.37;;;9.60;1.00;;;;;;5073581;28;20111;-47
2023/01/12 01:11:20;;;;;;;24.83;15.57;;;9.40;1.00;;;;;;5074151;28;20115;-47
2023/01/12 01:13:47;;;;;;;19.10;14.03;;;9.50;1.00;;;;;;5070054;28;20021;-50
2023/01/12 01:16:15;;;;;;;17.37;14.83;;;9.50;1.00;;;;;;5073782;28;20394;-46
2023/01/12 01:18:41;;;;;;;18.87;14.03;;;9.60;1.00;;;;;;5073546;28;20024;-51
2023/01/12 01:21:11;;;;;;;17.57;14.07;;;9.60;1.00;;;;;;5073674;28;20119;-46
2023/01/12 01:23:38;;;;;;;18.10;14.30;;;9.60;1.00;;;;;;5073732;28;20040;-52
2023/01/12 01:26:09;;;;;;;21.00;14.87;;;9.50;1.00;;;;;;5073529;28;20060;-48
2023/01/12 01:28:35;;;;;;;18.87;15.03;;;9.50;1.00;;;;;;5072072;28;20051;-50
2023/01/12 01:31:14;;;;;;;18.80;15.33;;;9.50;1.00;;;;;;5073354;28;20077;-51
2023/01/12 01:33:40;;;;;;;20.50;15.17;;;9.50;1.00;;;;;;5073414;28;20374;-49
2023/01/12 01:36:06;;;;;;;18.93;14.80;;;9.50;1.00;;;;;;5073259;28;20023;-49
2023/01/12 01:38:32;;;;;;;21.40;15.50;;;9.40;1.00;;;;;;5071617;28;20030;-48
2023/01/12 01:40:58;;;;;;;23.37;16.07;;;9.50;1.00;;;;;;5073131;28;20021;-50
2023/01/12 01:43:25;;;;;;;19.87;15.13;;;9.50;1.00;;;;;;5073150;28;20024;-49
2023/01/12 01:46:00;;;;;;;19.50;14.57;;;9.50;1.00;;;;;;5059039;28;20531;-49
2023/01/12 01:48:30;;;;;;;20.63;15.90;;;9.40;1.00;;;;;;5071840;28;20033;-50
2023/01/12 01:50:59;;;;;;;19.80;16.77;;;9.40;1.00;;;;;;5073071;28;20065;-53
2023/01/12 01:53:28;;;;;;;21.80;16.43;;;9.40;1.00;;;;;;5073102;28;20025;-50
2023/01/12 01:55:59;;;;;;;18.13;15.40;;;9.30;1.00;;;;;;5073119;28;20024;-47
2023/01/12 01:58:35;;;;;;;22.67;16.47;;;9.30;1.00;;;;;;5073292;28;20020;-49
2023/01/12 02:01:01;;;;;;;21.17;15.80;;;9.30;1.00;;;;;;5071532;28;20040;-48
2023/01/12 02:03:28;;;;;;;23.13;15.77;;;9.40;1.00;;;;;;5063022;28;20029;-46
2023/01/12 02:05:55;;;;;;;20.33;16.90;;;9.30;1.00;;;;;;5066439;28;20025;-49
2023/01/12 02:08:52;;;;;;;20.27;16.17;;;9.30;1.00;;;;;;5070282;28;20036;-46
2023/01/12 02:17:31;;;;;;;21.73;16.07;;;9.30;1.00;;;;;;5059645;28;20504;-49
2023/01/12 02:20:00;;;;;;;20.80;14.97;;;9.30;1.00;;;;;;5072001;28;20123;-48
2023/01/12 02:23:03;;;;;;;21.40;15.73;;;9.30;1.00;;;;;;5071251;28;20035;-47
2023/01/12 02:25:47;;;;;;;19.23;14.70;;;9.10;1.00;;;;;;5064485;28;20025;-47
2023/01/12 02:28:34;;;;;;;19.88;14.50;;;9.20;1.00;;;;;;5070603;28;20040;-47
2023/01/12 02:31:18;;;;;;;18.33;14.20;;;9.20;1.00;;;;;;5071969;28;20029;-46
2023/01/12 02:34:16;;;;;;;20.17;14.40;;;9.10;1.00;;;;;;5058783;28;20024;-48
2023/01/12 02:36:42;;;;;;;20.30;14.27;;;9.10;1.00;;;;;;5071943;28;20025;-46
2023/01/12 02:39:24;;;;;;;21.07;14.87;;;9.10;1.00;;;;;;5072873;28;20020;-47
2023/01/12 02:44:52;;;;;;;17.20;14.03;;;9.10;1.00;;;;;;5062120;28;20035;-47
2023/01/12 02:47:29;;;;;;;20.90;14.10;;;9.10;1.00;;;;;;5064128;28;20044;-47
2023/01/12 02:50:00;;;;;;;15.47;12.67;;;9.00;1.00;;;;;;5065854;28;20037;-48
2023/01/12 02:52:30;;;;;;;16.90;13.37;;;9.10;1.00;;;;;;5061638;28;20021;-48
2023/01/12 02:54:59;;;;;;;18.80;13.47;;;9.10;1.00;;;;;;5072808;28;20413;-47
2023/01/12 02:57:27;;;;;;;17.53;13.43;;;9.00;1.00;;;;;;5055795;28;20082;-46
2023/01/12 02:59:54;;;;;;;17.53;14.57;;;9.00;1.00;;;;;;5075682;28;20047;-47
2023/01/12 03:02:23;;;;;;;19.30;15.03;;;9.00;1.00;;;;;;5073856;28;20166;-47
2023/01/12 03:04:49;;;;;;;19.90;14.70;;;9.00;1.00;;;;;;5069381;28;20070;-46
2023/01/12 03:07:21;;;;;;;19.70;14.90;;;9.00;1.00;;;;;;5068066;28;20111;-48
2023/01/12 03:09:50;;;;;;;22.30;16.03;;;9.00;1.00;;;;;;5075157;28;20129;-51
2023/01/12 03:12:21;;;;;;;18.47;15.13;;;8.90;1.00;;;;;;5075329;28;20502;-47
2023/01/12 03:14:49;;;;;;;20.80;15.60;;;9.00;1.00;;;;;;5070052;28;20546;-46
2023/01/12 03:17:30;;;;;;;20.77;16.50;;;8.90;1.00;;;;;;5074175;28;20024;-48
2023/01/12 03:20:02;;;;;;;21.90;15.67;;;8.90;1.00;;;;;;5073452;28;20466;-53
2023/01/12 03:22:46;;;;;;;23.40;16.83;;;8.90;1.00;;;;;;5068164;28;20382;-50
2023/01/12 03:25:17;;;;;;;21.37;16.77;;;8.90;1.00;;;;;;5070234;28;20031;-53
2023/01/12 03:27:47;;;;;;;31.07;16.57;;;8.90;1.00;;;;;;5071234;28;20059;-52
2023/01/12 03:30:35;;;;;;;21.37;16.70;;;8.90;1.00;;;;;;5061937;28;20034;-47
2023/01/12 03:33:02;;;;;;;23.33;16.90;;;8.90;1.00;;;;;;5061294;28;20109;-50
2023/01/12 03:35:34;;;;;;;24.03;18.30;;;8.90;1.00;;;;;;5065312;28;20032;-49
2023/01/12 03:38:15;;;;;;;21.50;17.10;;;8.80;1.00;;;;;;5069635;28;20150;-47
2023/01/12 03:40:51;;;;;;;19.53;17.30;;;8.90;1.00;;;;;;5069465;28;20078;-47
2023/01/12 03:43:22;;;;;;;24.50;19.33;;;8.80;1.00;;;;;;5072112;28;20047;-46
2023/01/12 03:45:55;;;;;;;24.63;18.67;;;8.80;1.00;;;;;;5060639;28;20028;-46
2023/01/12 03:48:25;;;;;;;20.47;18.33;;;8.80;1.00;;;;;;5066023;28;20033;-48
2023/01/12 03:51:02;;;;;;;22.23;18.70;;;8.80;1.00;;;;;;5071879;28;20082;-52
2023/01/12 03:53:29;;;;;;;20.40;17.67;;;8.70;1.00;;;;;;5070700;28;20028;-51
2023/01/12 03:56:00;;;;;;;20.67;18.07;;;8.70;1.00;;;;;;5064178;28;20086;-49
2023/01/12 03:58:26;;;;;;;24.17;17.60;;;8.70;1.00;;;;;;5073876;28;20035;-47
2023/01/12 04:00:51;;;;;;;23.57;17.70;;;8.70;1.00;;;;;;5071456;28;20374;-51
2023/01/12 04:03:17;;;;;;;24.77;18.37;;;8.70;1.00;;;;;;5071908;28;20035;-48
2023/01/12 04:05:44;;;;;;;21.03;16.60;;;8.70;1.00;;;;;;5066065;28;20123;-47
2023/01/12 04:08:12;;;;;;;21.27;16.70;;;8.60;1.00;;;;;;5061347;28;20165;-50
2023/01/12 04:10:37;;;;;;;24.57;17.60;;;8.60;1.00;;;;;;5069851;28;20139;-49
2023/01/12 04:13:03;;;;;;;24.77;18.57;;;8.70;1.00;;;;;;5064384;28;20108;-49
2023/01/12 04:15:29;;;;;;;25.23;18.00;;;8.60;1.00;;;;;;5063646;28;20458;-48
2023/01/12 04:17:55;;;;;;;21.70;17.97;;;8.50;1.00;;;;;;5060722;28;20436;-47
2023/01/12 04:20:20;;;;;;;21.80;17.60;;;8.60;1.00;;;;;;5071586;28;20431;-48
2023/01/12 04:22:46;;;;;;;19.13;16.83;;;8.60;1.00;;;;;;5065968;28;20537;-48
2023/01/12 04:25:14;;;;;;;24.63;17.47;;;8.60;1.00;;;;;;5068965;28;20020;-48
2023/01/12 04:27:44;;;;;;;22.70;17.87;;;8.60;1.00;;;;;;5059591;28;20130;-53
2023/01/12 04:30:11;;;;;;;23.87;18.27;;;8.60;1.00;;;;;;5068712;28;20090;-47
2023/01/12 04:32:36;;;;;;;21.80;17.67;;;8.60;1.00;;;;;;5072374;28;20040;-48
2023/01/12 04:35:03;;;;;;;20.87;17.80;;;8.60;1.00;;;;;;5068570;28;20021;-47
2023/01/12 04:37:31;;;;;;;23.27;18.50;;;8.50;1.00;;;;;;5067082;28;20486;-51
2023/01/12 04:39:57;;;;;;;21.93;17.63;;;8.50;1.00;;;;;;5068067;28;20028;-48
2023/01/12 04:45:07;;;;;;;24.67;17.83;;;8.50;1.00;;;;;;5071628;28;20095;-49
2023/01/12 04:47:33;;;;;;;19.50;16.43;;;8.40;1.00;;;;;;5067740;28;20024;-48
2023/01/12 04:49:59;;;;;;;23.10;18.63;;;8.50;1.00;;;;;;5071458;28;20041;-47
2023/01/12 04:52:24;;;;;;;24.10;18.40;;;8.50;1.00;;;;;;5069474;28;20021;-48
2023/01/12 04:54:50;;;;;;;23.77;17.30;;;8.50;1.00;;;;;;5073459;28;20492;-47
2023/01/12 04:57:15;;;;;;;23.97;16.83;;;8.50;1.00;;;;;;5066381;28;20021;-46
2023/01/12 04:59:41;;;;;;;22.50;16.97;;;8.50;1.00;;;;;;5059157;28;20082;-47
2023/01/12 05:02:06;;;;;;;22.87;16.67;;;8.40;1.00;;;;;;5060488;28;20040;-47
2023/01/12 05:04:32;;;;;;;24.37;16.70;;;8.40;1.00;;;;;;5067569;28;20048;-49
2023/01/12 05:06:58;;;;;;;25.60;17.27;;;8.40;1.00;;;;;;5063361;28;20037;-46
2023/01/12 05:12:07;;;;;;;22.77;18.13;;;8.00;1.00;;;;;;5071271;28;20043;-45
2023/01/12 05:17:56;;;;;;;21.37;16.57;;;8.10;1.00;;;;;;5066323;28;20543;-49
2023/01/12 05:20:24;;;;;;;26.03;17.83;;;8.20;1.00;;;;;;5073010;28;20485;-47
2023/01/12 05:22:51;;;;;;;27.20;18.30;;;8.20;1.00;;;;;;5062037;28;20028;-46
2023/01/12 05:25:17;;;;;;;20.57;16.97;;;8.20;1.00;;;;;;5068748;28;20488;-46
2023/01/12 05:27:43;;;;;;;24.00;18.00;;;8.20;1.00;;;;;;5062944;28;20029;-45
2023/01/12 05:30:09;;;;;;;22.53;18.07;;;8.20;1.00;;;;;;5069819;28;20082;-48
2023/01/12 05:32:37;;;;;;;27.23;17.63;;;8.20;1.00;;;;;;5068783;28;20138;-47
2023/01/12 05:35:04;;;;;;;25.23;17.90;;;8.30;1.00;;;;;;5067868;28;20025;-46
2023/01/12 05:37:29;;;;;;;26.07;17.70;;;8.30;1.00;;;;;;5069643;28;20035;-46
2023/01/12 05:39:55;;;;;;;23.33;18.17;;;8.20;1.00;;;;;;5072537;28;20032;-48
2023/01/12 05:45:06;;;;;;;24.73;17.70;;;8.20;1.00;;;;;;5072638;28;20394;-46
2023/01/12 05:47:32;;;;;;;22.27;16.73;;;8.20;1.00;;;;;;5072478;28;20377;-45
2023/01/12 05:49:58;;;;;;;25.43;17.90;;;8.20;1.00;;;;;;5073106;28;20170;-51
2023/01/12 05:52:23;;;;;;;24.43;17.47;;;8.20;1.00;;;;;;5073071;28;20036;-47
2023/01/12 05:54:49;;;;;;;22.67;18.27;;;8.20;1.00;;;;;;5073285;28;20024;-47
2023/01/12 05:57:15;;;;;;;23.30;17.97;;;8.20;1.00;;;;;;5074423;28;20020;-45
2023/01/12 05:59:40;;;;;;;25.00;17.17;;;8.20;1.00;;;;;;5073111;28;20473;-46
2023/01/12 06:02:08;;;;;;;22.07;17.07;;;8.30;1.00;;;;;;5073156;28;20031;-47
2023/01/12 06:04:33;;;;;;;24.27;18.17;;;8.10;1.00;;;;;;5071090;28;20462;-45
2023/01/12 06:06:59;;;;;;;21.97;17.27;;;8.20;1.00;;;;;;5073127;28;20021;-48
2023/01/12 06:09:24;;;;;;;23.40;16.97;;;8.20;1.00;;;;;;5065861;28;20398;-46
2023/01/12 06:14:34;;;;;;;22.25;17.95;;;8.20;1.00;;;;;;5072556;28;20055;-51
2023/01/12 06:17:00;;;;;;;21.60;16.97;;;8.30;1.00;;;;;;5072998;28;20447;-51
2023/01/12 06:19:26;;;;;;;25.20;17.37;;;8.20;1.00;;;;;;5072903;28;20067;-50
2023/01/12 06:21:54;;;;;;;23.73;16.97;;;8.30;1.00;;;;;;5071674;28;20070;-51
2023/01/12 06:24:20;;;;;;;22.30;17.47;;;8.20;1.00;;;;;;5073593;28;20022;-53
2023/01/12 06:26:46;;;;;;;21.60;17.10;;;8.30;1.00;;;;;;5062978;28;20104;-52
2023/01/12 06:29:12;;;;;;;20.83;16.83;;;8.40;1.00;;;;;;5076943;28;20115;-52
2023/01/12 06:31:38;;;;;;;22.87;17.17;;;8.30;1.00;;;;;;5076915;28;20063;-50
2023/01/12 06:34:06;;;;;;;21.87;16.80;;;8.30;1.00;;;;;;5076765;28;20474;-46
2023/01/12 06:36:32;;;;;;;26.00;17.87;;;8.30;1.00;;;;;;5065603;28;20052;-51
2023/01/12 06:38:58;;;;;;;22.83;17.67;;;8.30;1.00;;;;;;5074959;28;20433;-51
2023/01/12 06:44:10;;;;;;;23.37;17.07;;;8.30;1.00;;;;;;5074108;28;20070;-49
2023/01/12 06:46:36;;;;;;;27.10;17.43;;;8.30;1.00;;;;;;5076606;28;20021;-46
2023/01/12 06:49:02;;;;;;;25.73;17.57;;;8.30;1.00;;;;;;5076408;28;20035;-48
2023/01/12 06:51:27;;;;;;;24.77;17.40;;;8.40;1.00;;;;;;5076967;28;20016;-47
2023/01/12 06:53:54;;;;;;;24.77;18.27;;;8.40;1.00;;;;;;5058508;28;20101;-47
2023/01/12 06:56:20;;;;;;;23.77;17.23;;;8.40;1.00;;;;;;5070928;28;20025;-47
2023/01/12 06:58:46;;;;;;;24.17;16.40;;;8.40;1.00;;;;;;5076366;28;20024;-47
2023/01/12 07:01:12;;;;;;;33.37;17.63;;;8.40;1.00;;;;;;5076195;28;20016;-48
2023/01/12 07:03:38;;;;;;;20.83;16.00;;;8.40;1.00;;;;;;5076367;28;20409;-49
2023/01/12 07:06:04;;;;;;;25.27;17.17;;;8.40;1.00;;;;;;5074931;28;20029;-51
2023/01/12 07:08:31;;;;;;;25.13;16.77;;;8.50;1.00;;;;;;5076172;28;20036;-49
2023/01/12 07:11:02;;;;;;;24.23;17.47;;;8.50;1.00;;;;;;5076040;28;20119;-47
2023/01/12 07:13:28;;;;;;;23.57;18.10;;;8.50;1.00;;;;;;5068913;28;20067;-45
2023/01/12 07:16:06;;;;;;;22.60;16.70;;;8.50;1.00;;;;;;5076138;28;20469;-46
2023/01/12 07:18:32;;;;;;;24.60;17.50;;;8.50;1.00;;;;;;5075979;28;20029;-50
2023/01/12 07:20:57;;;;;;;23.63;17.17;;;8.40;1.00;;;;;;5075676;28;20038;-50
2023/01/12 07:23:23;;;;;;;23.57;17.77;;;8.50;1.00;;;;;;5075833;28;20082;-50
2023/01/12 07:25:49;;;;;;;26.33;18.90;;;8.50;1.00;;;;;;5075889;28;20462;-45
2023/01/12 07:28:15;;;;;;;31.80;19.47;;;8.50;1.00;;;;;;5075696;28;20082;-47
2023/01/12 07:30:40;;;;;;;26.17;19.17;;;8.50;1.00;;;;;;5070050;28;20048;-47
2023/01/12 07:33:07;;;;;;;29.60;21.20;;;8.40;1.00;;;;;;5075458;28;20029;-48
2023/01/12 07:35:33;;;;;;;24.13;18.80;;;8.50;1.00;;;;;;5073883;28;20484;-46
2023/01/12 07:37:59;;;;;;;30.93;20.90;;;8.40;1.00;;;;;;5075052;28;20103;-48
2023/01/12 07:40:24;;;;;;;29.17;19.93;;;8.40;1.00;;;;;;5075799;28;20021;-45
2023/01/12 07:43:07;;;;;;;33.43;20.33;;;8.30;1.00;;;;;;5075670;28;20111;-47
2023/01/12 07:45:34;;;;;;;30.53;19.83;;;8.40;1.00;;;;;;5067670;28;20025;-46
2023/01/12 07:48:00;;;;;;;28.13;19.80;;;8.40;1.00;;;;;;5073515;28;20111;-50
2023/01/12 07:50:27;;;;;;;31.33;20.40;;;8.50;1.00;;;;;;5062131;28;20116;-46
2023/01/12 07:52:53;;;;;;;29.80;19.13;;;8.50;1.00;;;;;;5075233;28;20025;-47
2023/01/12 07:55:19;;;;;;;31.53;19.10;;;8.50;1.00;;;;;;5075363;28;20501;-47
2023/01/12 07:57:59;;;;;;;31.37;20.43;;;8.50;1.00;;;;;;5073214;28;20032;-45
2023/01/12 08:00:26;;;;;;;32.10;20.30;;;8.60;1.00;;;;;;5074794;28;20169;-46
2023/01/12 08:02:54;;;;;;;31.20;19.53;;;8.60;1.00;;;;;;5074329;28;20048;-48
2023/01/12 08:05:21;;;;;;;33.10;20.37;;;8.60;1.00;;;;;;5068119;28;20036;-47
2023/01/12 08:07:47;;;;;;;28.80;19.77;;;8.60;1.00;;;;;;5070493;28;20070;-47
2023/01/12 08:10:14;;;;;;;31.83;19.93;;;8.70;1.00;;;;;;5062915;28;20052;-48
2023/01/12 08:12:40;;;;;;;30.30;19.33;;;8.70;1.00;;;;;;5070529;28;20025;-48
2023/01/12 08:15:08;;;;;;;26.17;19.93;;;8.70;1.00;;;;;;5062937;28;20355;-46
2023/01/12 08:17:39;;;;;;;34.70;21.93;;;8.80;1.00;;;;;;5074882;28;20108;-46
2023/01/12 08:20:15;;;;;;;33.33;21.03;;;8.80;1.00;;;;;;5075187;28;20024;-47
2023/01/12 08:22:44;;;;;;;33.63;18.47;;;8.90;1.00;;;;;;5075007;28;20107;-45
2023/01/12 08:25:17;;;;;;;25.30;18.00;;;8.80;1.00;;;;;;5075511;28;20347;-46
2023/01/12 08:27:46;;;;;;;26.53;17.03;;;8.70;1.00;;;;;;5075026;28;20032;-47
2023/01/12 08:30:37;;;;;;;27.37;18.20;;;8.90;1.00;;;;;;5061198;28;20029;-47
2023/01/12 08:33:02;;;;;;;27.87;17.63;;;9.00;1.00;;;;;;5074233;28;20107;-46
2023/01/12 08:35:33;;;;;;;33.13;17.77;;;9.00;1.00;;;;;;5074384;28;20112;-45
2023/01/12 08:37:59;;;;;;;26.47;18.53;;;9.10;1.00;;;;;;5073205;28;20085;-46
2023/01/12 08:41:31;;;;;;;26.80;17.47;;;9.20;1.00;;;;;;5074651;28;20028;-46
2023/01/12 08:44:00;;;;;;;39.03;18.17;;;9.20;1.00;;;;;;5074175;28;20375;-45
2023/01/12 08:46:06;;;;;;;29.73;17.33;;;9.20;1.00;;;;;;5060363;28;20135;-50
2023/01/12 08:48:35;;;;;;;27.60;19.33;;;9.30;1.00;;;;;;5073191;28;20032;-45
2023/01/12 08:51:02;;;;;;;28.67;17.93;;;9.40;1.00;;;;;;5066559;28;20037;-54
2023/01/12 08:53:28;;;;;;;29.83;19.50;;;9.40;1.00;;;;;;5071037;28;20012;-50
2023/01/12 08:55:54;;;;;;;30.57;18.13;;;9.50;1.00;;;;;;5073410;28;20027;-50
2023/01/12 08:58:20;;;;;;;22.73;17.87;;;9.50;1.00;;;;;;5073360;28;20019;-51
2023/01/12 09:00:45;;;;;;;32.30;19.70;;;9.50;1.00;;;;;;5073956;28;20043;-50
2023/01/12 09:03:11;;;;;;;31.50;21.03;;;9.60;1.00;;;;;;5062071;28;20048;-49
2023/01/12 09:05:36;;;;;;;34.37;22.13;;;9.70;1.00;;;;;;5071115;28;20094;-49
2023/01/12 09:08:02;;;;;;;29.80;22.07;;;9.60;1.00;;;;;;5069225;28;20074;-50
2023/01/12 09:10:27;;;;;;;27.90;21.80;;;9.70;1.00;;;;;;5066958;28;20417;-49
2023/01/12 09:12:53;;;;;;;34.30;21.73;;;9.80;1.00;;;;;;5072411;28;20024;-51
2023/01/12 09:15:19;;;;;;;35.80;21.37;;;9.80;1.00;;;;;;5073624;28;20438;-47
2023/01/12 09:17:44;;;;;;;32.80;22.10;;;9.80;1.00;;;;;;5059759;28;20143;-48
2023/01/12 09:20:11;;;;;;;40.87;22.80;;;9.90;1.00;;;;;;5073989;28;20028;-45
2023/01/12 09:22:37;;;;;;;34.73;22.33;;;9.90;1.00;;;;;;5073513;28;20024;-45
2023/01/12 09:25:02;;;;;;;30.43;21.63;;;10.00;1.00;;;;;;5073607;28;20036;-45
2023/01/12 09:27:28;;;;;;;34.90;24.90;;;10.00;1.00;;;;;;5073366;28;20486;-46
2023/01/12 09:29:54;;;;;;;33.43;23.93;;;10.00;1.00;;;;;;5073289;28;20107;-48
2023/01/12 09:32:20;;;;;;;35.10;23.40;;;10.10;1.00;;;;;;5073297;28;20059;-46
2023/01/12 09:34:47;;;;;;;29.20;22.30;;;10.20;1.00;;;;;;5073291;28;20496;-46
2023/01/12 09:37:13;;;;;;;31.03;22.17;;;10.20;1.00;;;;;;5073349;28;20013;-47
2023/01/12 09:39:38;;;;;;;36.83;22.57;;;10.30;1.00;;;;;;5073145;28;20025;-48
2023/01/12 09:47:55;;;;;;;31.47;22.10;;;10.40;1.00;;;;;;5073377;28;20078;-49
2023/01/12 09:50:35;;;;;;;28.85;21.85;;;10.30;1.00;;;;;;5073264;28;20040;-49
2023/01/12 09:53:11;;;;;;;28.88;22.88;;;10.40;1.00;;;;;;5058851;28;20048;-48
2023/01/12 09:55:45;;;;;;;33.05;22.30;;;10.30;1.00;;;;;;5073268;28;20071;-45
2023/01/12 09:58:22;;;;;;;35.90;22.90;;;10.40;1.00;;;;;;5073027;28;20017;-47
2023/01/12 10:00:56;;;;;;;33.50;24.60;;;10.40;1.00;;;;;;5069989;28;20086;-45
2023/01/12 10:03:34;;;;;;;34.20;23.58;;;10.40;1.00;;;;;;5071114;28;20085;-45
2023/01/12 10:06:00;;;;;;;37.08;24.38;;;10.50;1.00;;;;;;5070025;28;20029;-48
2023/01/12 10:08:33;;;;;;;36.43;24.10;;;10.40;1.00;;;;;;5069650;28;20127;-49
2023/01/12 10:11:05;;;;;;;35.28;25.27;;;10.40;1.00;;;;;;5069312;28;20052;-47
2023/01/12 10:13:57;;;;;;;32.40;23.53;;;10.50;1.00;;;;;;5070236;28;20043;-47
2023/01/12 10:17:04;;;;;;;44.57;25.13;;;10.50;1.00;;;;;;5059421;28;20038;-45
2023/01/12 10:20:05;;;;;;;32.87;23.60;;;10.50;1.00;;;;;;5069219;28;20033;-51
2023/01/12 10:22:38;;;;;;;33.87;24.67;;;10.50;1.00;;;;;;5052012;28;20066;-49
2023/01/12 10:25:31;;;;;;;34.07;25.13;;;10.50;1.00;;;;;;5066703;28;20048;-50
2023/01/12 10:27:58;;;;;;;35.73;25.00;;;10.40;1.00;;;;;;5062198;28;20055;-46
2023/01/12 10:30:33;;;;;;;36.67;24.80;;;10.40;1.00;;;;;;5069008;28;20028;-46
2023/01/12 10:33:12;;;;;;;41.53;26.67;;;10.50;1.00;;;;;;5072650;28;20031;-46
2023/01/12 10:35:53;;;;;;;33.87;26.23;;;10.50;1.00;;;;;;5072574;28;20032;-48
2023/01/12 10:38:24;;;;;;;34.47;26.07;;;10.40;1.00;;;;;;5072869;28;20028;-49
2023/01/12 10:41:25;;;;;;;35.80;26.20;;;10.40;1.00;;;;;;5072626;28;20523;-47
2023/01/12 10:43:53;;;;;;;32.17;24.13;;;10.40;1.00;;;;;;5072213;28;20116;-48
2023/01/12 10:46:21;;;;;;;38.83;25.00;;;10.30;1.00;;;;;;5059413;28;20040;-48
2023/01/12 10:48:52;;;;;;;32.03;23.67;;;10.40;1.00;;;;;;5069864;28;20040;-46
2023/01/12 10:51:34;;;;;;;29.00;22.63;;;10.40;1.00;;;;;;5072038;28;20040;-49
2023/01/12 10:54:34;;;;;;;30.63;24.27;;;10.40;1.00;;;;;;5058586;28;20378;-46
2023/01/12 10:57:17;;;;;;;30.83;23.83;;;10.30;1.00;;;;;;5048715;28;20120;-46
2023/01/12 10:59:52;;;;;;;31.13;22.63;;;10.30;1.00;;;;;;5072347;28;20358;-46
2023/01/12 11:02:17;;;;;;;22.83;18.50;;;10.20;1.00;;;;;;5072434;28;20041;-50
2023/01/12 11:04:50;;;;;;;38.43;23.23;;;10.20;1.00;;;;;;5072154;28;20016;-49
2023/01/12 11:07:18;;;;;;;33.77;24.37;;;10.10;1.00;;;;;;5072653;28;20020;-46
2023/01/12 11:09:44;;;;;;;31.90;23.53;;;10.10;1.00;;;;;;5071928;28;20102;-48
2023/01/12 11:12:28;;;;;;;30.87;22.27;;;10.30;1.00;;;;;;5074281;28;20055;-44
2023/01/12 11:15:10;;;;;;;34.60;22.50;;;10.20;1.00;;;;;;5075789;28;20031;-45
2023/01/12 11:17:35;;;;;;;28.13;21.90;;;10.20;1.00;;;;;;5075982;28;20402;-45
2023/01/12 11:20:09;;;;;;;30.63;22.73;;;10.30;1.00;;;;;;5075715;28;20021;-45
2023/01/12 11:22:36;;;;;;;34.08;22.95;;;10.40;1.00;;;;;;5075871;28;20473;-46
2023/01/12 11:25:08;;;;;;;33.77;22.97;;;10.40;1.00;;;;;;5075803;28;20101;-47
2023/01/12 11:27:43;;;;;;;30.73;23.17;;;10.30;1.00;;;;;;5062152;28;20465;-46
2023/01/12 11:30:26;;;;;;;30.08;22.55;;;10.40;1.00;;;;;;5075845;28;20048;-49
2023/01/12 11:37:07;;;;;;;29.07;21.37;;;10.40;1.00;;;;;;5058204;28;20595;-47
2023/01/12 11:39:54;;;;;;;27.20;20.23;;;10.40;1.00;;;;;;5073470;28;20674;-47
2023/01/12 11:45:58;;;;;;;27.30;19.90;;;10.60;1.00;;;;;;5013817;28;20479;-49
2023/01/12 11:48:36;;;;;;;26.50;19.77;;;10.70;1.00;;;;;;5013721;28;20518;-45
2023/01/12 11:51:03;;;;;;;27.70;19.20;;;10.70;1.00;;;;;;5059161;28;20112;-45
2023/01/12 11:53:29;;;;;;;26.40;20.43;;;10.70;1.00;;;;;;5075349;28;20020;-46
2023/01/12 11:56:20;;;;;;;30.13;19.08;;;10.70;1.00;;;;;;5075444;28;20029;-46
2023/01/12 11:59:07;;;;;;;32.90;19.27;;;10.80;1.00;;;;;;5075517;28;20074;-46
2023/01/12 12:02:11;;;;;;;29.53;20.43;;;10.70;1.00;;;;;;5075140;28;20016;-45
2023/01/12 12:05:04;;;;;;;28.45;21.05;;;10.80;1.00;;;;;;5068705;28;20433;-46
2023/01/12 12:07:58;;;;;;;28.92;20.88;;;10.80;1.00;;;;;;5064958;28;20481;-46
2023/01/12 12:10:26;;;;;;;29.13;20.77;;;10.90;1.00;;;;;;5062393;28;20049;-46
2023/01/12 12:13:01;;;;;;;23.92;18.35;;;10.90;1.00;;;;;;5074946;28;20372;-48
2023/01/12 12:15:37;;;;;;;25.85;18.65;;;10.90;1.00;;;;;;5061916;28;20110;-49
2023/01/12 12:18:20;;;;;;;21.48;17.65;;;10.90;1.00;;;;;;5060691;28;20032;-46
2023/01/12 12:21:36;;;;;;;22.65;17.73;;;11.00;1.00;;;;;;5075018;28;20036;-50
2023/01/12 12:24:09;;;;;;;27.00;16.85;;;11.00;1.00;;;;;;5012562;28;20026;-46
2023/01/12 12:26:42;;;;;;;22.13;15.25;;;11.10;1.00;;;;;;5064720;28;20056;-47
2023/01/12 12:29:20;;;;;;;19.83;15.07;;;11.20;1.00;;;;;;5074789;28;20068;-48
2023/01/12 12:31:52;;;;;;;23.08;16.85;;;11.30;1.00;;;;;;5074517;28;20060;-47
2023/01/12 12:34:32;;;;;;;22.55;16.33;;;11.30;1.00;;;;;;5074324;28;20495;-46
2023/01/12 12:37:10;;;;;;;20.65;15.75;;;11.40;1.00;;;;;;5074738;28;20099;-46
2023/01/12 12:40:23;;;;;;;22.13;15.00;;;11.30;1.00;;;;;;5061867;28;20021;-48
2023/01/12 12:46:19;;;;;;;20.67;15.85;;;11.40;1.00;;;;;;5074395;28;20627;-48
2023/01/12 12:48:50;;;;;;;23.92;16.23;;;11.50;1.00;;;;;;5073648;28;20038;-46
2023/01/12 12:51:17;;;;;;;22.33;15.95;;;11.60;1.00;;;;;;5059894;28;20027;-48
2023/01/12 12:53:51;;;;;;;21.48;16.92;;;11.70;1.00;;;;;;5074373;28;20111;-47
2023/01/12 12:56:19;;;;;;;24.80;16.35;;;11.70;1.00;;;;;;5074292;28;20016;-47
2023/01/12 12:58:46;;;;;;;21.85;17.23;;;11.70;1.00;;;;;;5074040;28;20025;-47
2023/01/12 13:01:24;;;;;;;22.73;16.13;;;11.80;1.00;;;;;;5072827;28;20031;-48
2023/01/12 13:03:52;;;;;;;21.20;16.42;;;12.00;1.00;;;;;;5056938;28;20021;-47
2023/01/12 13:06:25;;;;;;;22.23;17.25;;;12.00;1.00;;;;;;5064614;28;20481;-46
2023/01/12 13:09:00;;;;;;;23.58;18.65;;;12.10;1.00;;;;;;5059654;28;20131;-46
2023/01/12 13:11:44;;;;;;;;;;;12.10;1.00;;;;;;5071846;28;20081;-48
2023/01/12 13:14:19;;;;;;;31.33;20.40;;;12.10;1.00;;;;;;5072304;28;19938;-57
2023/01/12 13:16:50;;;;;;;26.40;19.65;;;12.00;1.00;;;;;;5073517;28;20115;-54
2023/01/12 13:19:38;;;;;;;27.70;21.17;;;11.90;1.00;;;;;;5073416;28;20017;-47
2023/01/12 13:22:26;;;;;;;24.17;19.13;;;12.00;1.00;;;;;;5061609;28;20020;-48
2023/01/12 13:24:54;;;;;;;26.77;20.77;;;12.00;1.00;;;;;;5073832;28;20028;-46
2023/01/12 13:27:53;;;;;;;28.73;20.15;;;11.90;1.00;;;;;;5073414;28;20017;-49
2023/01/12 13:30:27;;;;;;;25.92;20.13;;;12.00;1.00;;;;;;5073433;28;20029;-47
2023/01/12 13:33:14;;;;;;;28.38;20.58;;;12.00;1.00;;;;;;5070545;28;20059;-47
2023/01/12 13:35:43;;;;;;;30.70;21.10;;;12.00;1.00;;;;;;5069671;28;20025;-48
2023/01/12 13:38:27;;;;;;;27.02;21.05;;;12.00;1.00;;;;;;5073605;28;20032;-48
2023/01/12 13:43:13;;;;;;;26.50;19.40;;;12.00;1.00;;;;;;5071629;28;20409;-50
2023/01/12 13:44:04;;;;;;;22.77;20.20;;;12.00;1.00;;;;;;5073002;28;20258;-47
2023/01/12 13:46:42;;;;;;;26.85;20.45;;;12.10;1.00;;;;;;5073359;28;20025;-46
2023/01/12 13:49:30;;;;;;;26.58;21.13;;;12.10;1.00;;;;;;5073182;28;20044;-48
2023/01/12 13:52:01;;;;;;;29.27;22.00;;;12.10;1.00;;;;;;5049871;28;20394;-47
2023/01/12 13:54:27;;;;;;;27.80;21.67;;;12.00;1.00;;;;;;5073066;28;20025;-46